Terminal Aerodrome Forecast
Issued by NWS

Home | Current Version | Previous Version | Text Only | Print | Product List | Glossary On
Versions: 1 2 3 4 5 6 7 8 9 10 11 12 13 14
000
FTAK31 PAJN 220540
TAFAJN
TAF
PAJN 220540Z 2206/2306 08005KT P6SM VCSH SCT025 BKN040 OVC060
      TEMPO 2214/2218 -RA FEW004 BKN025 OVC040
     FM221800 11010KT P6SM -RA BKN025 OVC050
     FM230000 09008KT P6SM -RA SCT025 OVC050=

USA.gov is the U.S. government's official web portal to all federal, state and local government web resources and services.